createdAt,value
2023-03-29T00:02:10.806Z,59.17
2023-03-29T00:04:38.997Z,58.45
2023-03-29T00:07:05.991Z,58.12
2023-03-29T00:09:33.508Z,58.41
2023-03-29T00:12:01.541Z,57.55
2023-03-29T00:14:30.824Z,57.40
2023-03-29T00:16:58.489Z,57.09
2023-03-29T00:19:25.577Z,56.31
2023-03-29T00:21:52.232Z,56.48
2023-03-29T00:24:18.931Z,56.88
2023-03-29T00:26:45.545Z,55.38
2023-03-29T00:29:12.122Z,55.36
2023-03-29T00:31:38.712Z,55.07
2023-03-29T00:34:05.351Z,55.93
2023-03-29T00:36:31.917Z,56.51
2023-03-29T00:38:58.530Z,57.05
2023-03-29T00:41:26.142Z,57.29
2023-03-29T00:43:54.291Z,58.58
2023-03-29T00:46:21.690Z,59.74
2023-03-29T00:48:49.527Z,60.65
2023-03-29T00:51:18.949Z,61.25
2023-03-29T00:53:57.626Z,62.24
2023-03-29T00:56:34.965Z,61.96
2023-03-29T00:59:35.721Z,61.24
2023-03-29T01:02:07.320Z,61.56
2023-03-29T01:04:52.596Z,60.93
2023-03-29T01:07:25.521Z,60.31
2023-03-29T01:10:12.880Z,59.75
2023-03-29T01:12:46.736Z,58.13
2023-03-29T01:15:14.571Z,56.87
2023-03-29T01:17:43.490Z,56.72
2023-03-29T01:20:20.576Z,56.20
2023-03-29T01:22:52.954Z,55.38
2023-03-29T01:25:45.982Z,55.13
2023-03-29T01:28:21.414Z,54.93
2023-03-29T01:31:11.918Z,53.29
2023-03-29T01:33:53.244Z,53.28
2023-03-29T01:36:27.751Z,53.98
2023-03-29T01:38:58.000Z,53.16
2023-03-29T01:41:39.763Z,53.87
2023-03-29T01:44:12.430Z,53.85
2023-03-29T01:46:48.257Z,53.87
2023-03-29T01:49:18.832Z,54.32
2023-03-29T01:51:53.007Z,55.38
2023-03-29T01:54:28.564Z,56.24
2023-03-29T01:56:57.263Z,56.63
2023-03-29T01:59:29.643Z,57.95
2023-03-29T02:02:00.467Z,58.22
2023-03-29T02:04:34.691Z,59.06
2023-03-29T02:07:05.248Z,59.42
2023-03-29T02:09:33.531Z,60.17
2023-03-29T02:12:02.245Z,59.88
2023-03-29T02:14:30.457Z,60.90
2023-03-29T02:16:57.068Z,61.79
2023-03-29T02:19:25.495Z,61.06
2023-03-29T02:22:10.367Z,62.18
2023-03-29T02:24:40.861Z,61.51
2023-03-29T02:27:07.717Z,61.84
2023-03-29T02:29:34.334Z,62.39
2023-03-29T02:32:16.844Z,62.35
2023-03-29T02:35:26.594Z,60.46
2023-03-29T02:37:56.132Z,59.96
2023-03-29T02:40:26.089Z,59.90
2023-03-29T02:42:56.036Z,57.39
2023-03-29T02:45:24.076Z,56.80
2023-03-29T02:47:56.028Z,53.38
2023-03-29T02:50:24.226Z,54.59
2023-03-29T02:52:56.088Z,53.75
2023-03-29T02:55:25.219Z,53.70
2023-03-29T02:57:51.957Z,53.37
2023-03-29T03:00:19.898Z,53.14
2023-03-29T03:02:47.731Z,52.89
2023-03-29T03:05:14.402Z,52.13
2023-03-29T03:07:40.949Z,53.16
2023-03-29T03:10:10.262Z,51.90
2023-03-29T03:12:37.493Z,51.81
2023-03-29T03:15:05.704Z,51.92
2023-03-29T03:17:33.567Z,52.75
2023-03-29T03:20:00.703Z,54.87
2023-03-29T03:22:27.328Z,56.27
2023-03-29T03:24:53.966Z,58.05
2023-03-29T03:27:20.602Z,59.22
2023-03-29T03:29:47.322Z,59.57
2023-03-29T03:32:13.992Z,60.11
2023-03-29T03:34:40.524Z,61.11
2023-03-29T03:37:07.185Z,62.56
2023-03-29T03:39:33.804Z,62.45
2023-03-29T03:42:00.380Z,62.87
2023-03-29T03:44:26.964Z,63.78
2023-03-29T03:46:53.548Z,63.01
2023-03-29T03:49:21.902Z,63.74
2023-03-29T03:51:49.849Z,64.55
2023-03-29T03:54:18.137Z,64.11
2023-03-29T03:56:44.669Z,64.13
2023-03-29T03:59:11.257Z,64.19
2023-03-29T04:01:37.908Z,66.29
2023-03-29T04:04:04.704Z,66.11
2023-03-29T04:06:31.526Z,64.47
2023-03-29T04:08:58.118Z,63.27
2023-03-29T04:11:24.649Z,62.85
2023-03-29T04:13:51.187Z,62.86
2023-03-29T04:16:17.772Z,62.06
2023-03-29T04:18:44.581Z,61.44
2023-03-29T04:21:11.220Z,59.97
2023-03-29T04:23:37.803Z,60.45
2023-03-29T04:26:04.600Z,58.90
2023-03-29T04:28:31.175Z,58.75
2023-03-29T04:30:57.839Z,57.89
2023-03-29T04:33:24.480Z,57.48
2023-03-29T04:35:51.133Z,57.66
2023-03-29T04:38:17.968Z,57.14
2023-03-29T04:40:44.726Z,57.82
2023-03-29T04:43:11.329Z,58.54
2023-03-29T04:45:38.168Z,57.83
2023-03-29T04:48:05.711Z,56.86
2023-03-29T04:50:32.400Z,56.48
2023-03-29T04:53:00.353Z,56.63
2023-03-29T04:55:27.090Z,55.83
2023-03-29T04:57:54.121Z,55.38
2023-03-29T05:00:27.081Z,55.08
2023-03-29T05:02:54.032Z,55.68
2023-03-29T05:05:21.134Z,56.69
2023-03-29T05:07:48.039Z,57.39
2023-03-29T05:10:15.011Z,57.67
2023-03-29T05:12:41.815Z,58.84
2023-03-29T05:15:09.693Z,60.06
2023-03-29T05:17:36.478Z,59.90
2023-03-29T05:20:09.556Z,60.94
2023-03-29T05:22:36.597Z,60.56
2023-03-29T05:25:03.560Z,60.71
2023-03-29T05:27:30.809Z,60.90
2023-03-29T05:29:57.586Z,60.80
2023-03-29T05:32:24.336Z,61.26
2023-03-29T05:34:51.552Z,62.81
2023-03-29T05:37:18.083Z,64.75
2023-03-29T05:39:45.268Z,65.26
2023-03-29T05:42:15.724Z,64.35
2023-03-29T05:44:42.472Z,66.46
2023-03-29T05:47:09.260Z,65.75
2023-03-29T05:49:35.862Z,65.23
2023-03-29T05:52:02.539Z,64.23
2023-03-29T05:54:29.109Z,64.61
2023-03-29T05:56:55.989Z,62.25
2023-03-29T05:59:23.836Z,62.69
2023-03-29T06:01:51.999Z,63.24
2023-03-29T06:04:19.091Z,62.80
2023-03-29T06:06:46.321Z,63.13
2023-03-29T06:09:12.966Z,62.72
2023-03-29T06:11:39.688Z,63.17
2023-03-29T06:14:06.640Z,62.87
2023-03-29T06:16:33.453Z,62.09
2023-03-29T06:19:00.505Z,61.54
2023-03-29T06:21:28.217Z,59.76
2023-03-29T06:23:55.099Z,59.27
2023-03-29T06:26:21.878Z,59.97
2023-03-29T06:28:51.366Z,59.28
2023-03-29T06:31:19.991Z,59.22
2023-03-29T06:33:47.535Z,59.48
2023-03-29T06:36:16.319Z,58.98
2023-03-29T06:38:45.652Z,56.68
2023-03-29T06:41:12.289Z,57.28
2023-03-29T06:43:39.282Z,57.61
2023-03-29T06:46:11.827Z,57.03
2023-03-29T06:48:39.807Z,57.40
2023-03-29T06:51:07.611Z,57.13
2023-03-29T06:53:34.903Z,57.38
2023-03-29T06:56:05.464Z,57.31
2023-03-29T06:58:32.086Z,57.03
2023-03-29T07:01:04.031Z,57.42
2023-03-29T07:03:31.713Z,57.39
2023-03-29T07:06:04.460Z,56.91
2023-03-29T07:08:31.706Z,56.58
2023-03-29T07:10:59.399Z,55.99
2023-03-29T07:13:26.367Z,56.78
2023-03-29T07:15:53.751Z,56.53
2023-03-29T07:18:21.057Z,55.26
2023-03-29T07:20:48.523Z,55.43
2023-03-29T07:23:16.034Z,55.00
2023-03-29T07:25:42.637Z,55.27
2023-03-29T07:28:09.250Z,55.48
2023-03-29T07:30:37.242Z,54.64
2023-03-29T07:33:04.626Z,54.76
2023-03-29T07:35:31.370Z,55.17
2023-03-29T07:37:58.626Z,55.01
2023-03-29T07:40:27.367Z,55.41
2023-03-29T07:42:56.728Z,54.91
2023-03-29T07:45:26.743Z,55.55
2023-03-29T07:47:57.404Z,54.82
2023-03-29T07:50:24.714Z,54.06
2023-03-29T07:52:51.754Z,54.95
2023-03-29T07:55:18.846Z,55.10
2023-03-29T07:57:45.535Z,55.52
2023-03-29T08:00:16.950Z,55.59
2023-03-29T08:02:45.771Z,54.12
2023-03-29T08:05:15.444Z,54.57
2023-03-29T08:07:46.469Z,54.68
2023-03-29T08:10:18.094Z,54.92
2023-03-29T08:12:47.532Z,53.76
2023-03-29T08:15:14.894Z,53.60
2023-03-29T08:17:41.934Z,53.01
2023-03-29T08:20:12.075Z,53.98
2023-03-29T08:22:39.219Z,53.57
2023-03-29T08:25:07.331Z,52.11
2023-03-29T08:27:35.149Z,52.38
2023-03-29T08:30:01.813Z,52.07
2023-03-29T08:32:28.518Z,51.56
2023-03-29T08:34:55.441Z,50.12
2023-03-29T08:37:23.984Z,51.64
2023-03-29T08:39:50.554Z,51.45
2023-03-29T08:42:38.799Z,48.05
2023-03-29T08:45:14.806Z,51.19
2023-03-29T08:48:01.655Z,50.98
2023-03-29T08:50:36.929Z,48.90
2023-03-29T08:53:18.818Z,48.23
2023-03-29T08:55:48.082Z,49.57
2023-03-29T08:58:19.473Z,49.88
2023-03-29T09:00:53.253Z,49.35
2023-03-29T09:03:26.169Z,49.10
2023-03-29T09:05:59.820Z,49.82
2023-03-29T09:08:27.910Z,49.73
2023-03-29T09:11:09.656Z,49.57
2023-03-29T09:14:03.414Z,48.48
2023-03-29T09:16:38.808Z,48.83
2023-03-29T09:19:27.801Z,47.33
2023-03-29T09:22:23.431Z,48.17
2023-03-29T09:24:54.247Z,47.37
2023-03-29T09:27:27.915Z,47.51
2023-03-29T09:30:19.391Z,43.60
2023-03-29T09:33:13.824Z,45.77
2023-03-29T09:35:47.024Z,46.38
2023-03-29T09:38:16.223Z,46.33
2023-03-29T09:40:50.028Z,46.48
2023-03-29T09:43:24.791Z,46.51
2023-03-29T09:45:56.381Z,46.78
2023-03-29T09:48:25.000Z,47.00
2023-03-29T09:50:52.355Z,46.33
2023-03-29T09:53:21.377Z,47.77
2023-03-29T09:55:50.640Z,46.71
2023-03-29T09:58:23.852Z,44.87
2023-03-29T10:00:51.202Z,43.45
2023-03-29T10:03:23.875Z,44.87
2023-03-29T10:05:54.504Z,43.39
2023-03-29T10:08:28.033Z,43.93
2023-03-29T10:10:58.232Z,43.56
2023-03-29T10:13:36.967Z,43.31
2023-03-29T10:16:06.111Z,43.31
2023-03-29T10:18:34.254Z,41.62
2023-03-29T10:21:03.835Z,42.06
2023-03-29T10:23:36.587Z,41.79
2023-03-29T10:26:07.884Z,42.79
2023-03-29T10:28:36.811Z,42.41
2023-03-29T10:31:06.029Z,43.25
2023-03-29T10:33:35.989Z,44.38
2023-03-29T10:36:06.988Z,44.92
2023-03-29T10:38:37.233Z,44.04
2023-03-29T10:41:08.083Z,44.96
2023-03-29T10:43:42.974Z,43.67
2023-03-29T10:46:13.497Z,45.32
2023-03-29T10:48:46.238Z,45.43
2023-03-29T10:51:14.558Z,44.65
2023-03-29T10:53:41.661Z,45.19
2023-03-29T10:56:27.995Z,44.76
2023-03-29T10:59:00.657Z,44.47
2023-03-29T11:01:31.911Z,44.67
2023-03-29T11:03:59.065Z,44.57
2023-03-29T11:06:45.097Z,42.77
2023-03-29T11:09:33.850Z,44.50
2023-03-29T11:12:38.592Z,45.56
2023-03-29T11:15:10.832Z,45.87
2023-03-29T11:18:11.919Z,45.90
2023-03-29T11:20:56.661Z,46.84
2023-03-29T11:23:39.895Z,46.91
2023-03-29T11:26:22.606Z,47.43
2023-03-29T11:29:25.805Z,46.96
2023-03-29T11:32:14.110Z,46.94
2023-03-29T11:35:19.327Z,47.58
2023-03-29T11:37:55.778Z,47.87
2023-03-29T11:40:44.782Z,48.13
2023-03-29T11:43:27.956Z,48.52
2023-03-29T11:46:10.066Z,46.70
2023-03-29T11:48:47.584Z,49.11
2023-03-29T11:51:28.514Z,48.02
2023-03-29T11:54:00.122Z,47.10
2023-03-29T11:56:36.198Z,48.53
2023-03-29T11:59:22.352Z,49.08
2023-03-29T12:01:56.595Z,48.34
2023-03-29T12:04:33.055Z,49.71
2023-03-29T12:07:08.751Z,50.23
2023-03-29T12:09:41.549Z,51.06
2023-03-29T12:12:17.913Z,51.06
2023-03-29T12:14:57.277Z,51.19
2023-03-29T12:17:30.807Z,51.72
2023-03-29T12:20:06.714Z,52.33
2023-03-29T12:22:33.981Z,53.03
2023-03-29T12:25:04.190Z,53.42
2023-03-29T12:27:39.789Z,54.09
2023-03-29T12:30:18.519Z,54.92
2023-03-29T12:33:05.220Z,54.46
2023-03-29T12:35:59.565Z,54.29
2023-03-29T12:38:30.975Z,53.39
2023-03-29T12:41:00.624Z,54.07
2023-03-29T12:43:32.460Z,53.98
2023-03-29T12:46:09.613Z,55.32
2023-03-29T12:48:41.719Z,54.61
2023-03-29T12:51:13.972Z,55.44
2023-03-29T12:53:45.490Z,54.63
2023-03-29T12:56:21.955Z,54.89
2023-03-29T12:59:10.796Z,56.06
2023-03-29T13:01:41.158Z,56.18
2023-03-29T13:04:22.458Z,55.70
2023-03-29T13:06:54.201Z,56.36
2023-03-29T13:09:51.229Z,57.39
2023-03-29T13:12:35.915Z,58.08
2023-03-29T13:15:05.916Z,57.55
2023-03-29T13:17:57.619Z,58.30
2023-03-29T13:20:34.389Z,59.44
2023-03-29T13:23:07.388Z,59.31
2023-03-29T13:26:11.485Z,59.36
2023-03-29T13:28:56.539Z,60.67
2023-03-29T13:31:31.391Z,59.30
2023-03-29T13:34:28.964Z,61.00
2023-03-29T13:37:23.152Z,60.78
2023-03-29T13:39:53.098Z,60.29
2023-03-29T13:42:34.868Z,60.47
2023-03-29T13:45:27.108Z,60.85
2023-03-29T13:48:31.753Z,60.59
2023-03-29T13:51:02.317Z,60.08
2023-03-29T13:53:37.784Z,60.97
2023-03-29T13:56:11.061Z,60.48
2023-03-29T13:58:51.297Z,62.33
2023-03-29T14:01:29.840Z,61.85
2023-03-29T14:03:57.725Z,61.46
2023-03-29T14:06:33.665Z,61.56
2023-03-29T14:09:06.450Z,62.09
2023-03-29T14:11:33.815Z,62.04
2023-03-29T14:14:11.007Z,61.99
2023-03-29T14:16:40.183Z,61.47
2023-03-29T14:19:22.495Z,62.39
2023-03-29T14:21:52.174Z,61.33
2023-03-29T14:24:26.044Z,61.41
2023-03-29T14:26:54.738Z,61.00
2023-03-29T14:29:23.508Z,61.34
2023-03-29T14:31:51.613Z,61.72
2023-03-29T14:34:19.274Z,61.79
2023-03-29T14:36:49.243Z,61.32
2023-03-29T14:39:21.673Z,62.05
2023-03-29T14:41:58.304Z,62.13
2023-03-29T14:44:31.870Z,61.94
2023-03-29T14:46:59.917Z,61.73
2023-03-29T14:49:28.301Z,61.58
2023-03-29T14:51:55.277Z,61.13
2023-03-29T14:54:22.153Z,60.95
2023-03-29T14:56:50.153Z,60.67
2023-03-29T14:59:38.537Z,60.47
2023-03-29T15:02:21.908Z,60.65
2023-03-29T15:04:58.889Z,60.77
2023-03-29T15:07:27.340Z,60.55
2023-03-29T15:09:55.301Z,60.63
2023-03-29T15:12:22.392Z,60.72
2023-03-29T15:14:52.189Z,60.67
2023-03-29T15:17:47.645Z,60.78
2023-03-29T15:20:41.878Z,60.42
2023-03-29T15:23:14.439Z,61.08
2023-03-29T15:25:58.768Z,60.66
2023-03-29T15:28:34.581Z,61.30
2023-03-29T15:31:13.041Z,60.85
2023-03-29T15:33:41.805Z,61.43
2023-03-29T15:36:11.383Z,61.39
2023-03-29T15:38:44.650Z,60.99
2023-03-29T15:41:15.587Z,61.43
2023-03-29T15:43:42.962Z,61.44
2023-03-29T15:46:13.026Z,61.60
2023-03-29T15:48:40.520Z,61.50
2023-03-29T15:51:07.641Z,61.30
2023-03-29T15:53:35.836Z,61.10
2023-03-29T15:56:05.532Z,61.01
2023-03-29T15:58:33.697Z,61.07
2023-03-29T16:01:34.139Z,61.25
2023-03-29T16:04:02.694Z,60.26
2023-03-29T16:06:29.287Z,60.29
2023-03-29T16:08:57.415Z,60.78
2023-03-29T16:11:24.268Z,60.59
2023-03-29T16:13:51.486Z,60.65
2023-03-29T16:16:18.352Z,60.63
2023-03-29T16:18:45.118Z,60.48
2023-03-29T16:21:18.226Z,60.04
2023-03-29T16:23:46.140Z,59.88
2023-03-29T16:26:16.479Z,59.26
2023-03-29T16:28:43.462Z,59.56
2023-03-29T16:31:11.901Z,59.15
2023-03-29T16:33:39.554Z,58.87
2023-03-29T16:36:07.031Z,59.02
2023-03-29T16:38:34.209Z,59.22
2023-03-29T16:41:01.622Z,59.31
2023-03-29T16:43:28.684Z,59.09
2023-03-29T16:45:55.357Z,59.21
2023-03-29T16:48:22.184Z,59.05
2023-03-29T16:50:49.571Z,58.49
2023-03-29T16:53:18.644Z,57.32
2023-03-29T16:55:46.744Z,56.95
2023-03-29T16:58:13.471Z,56.53
2023-03-29T17:00:40.935Z,55.89
2023-03-29T17:03:08.237Z,56.50
2023-03-29T17:05:39.981Z,56.05
2023-03-29T17:08:09.008Z,56.45
2023-03-29T17:10:35.918Z,55.86
2023-03-29T17:13:02.629Z,55.64
2023-03-29T17:15:29.514Z,55.59
2023-03-29T17:17:56.156Z,56.07
2023-03-29T17:20:22.754Z,55.69
2023-03-29T17:22:52.148Z,55.55
2023-03-29T17:25:18.749Z,55.30
2023-03-29T17:27:46.144Z,54.59
2023-03-29T17:30:13.057Z,54.76
2023-03-29T17:32:41.445Z,54.13
2023-03-29T17:35:09.651Z,54.65
2023-03-29T17:37:36.586Z,54.06
2023-03-29T17:40:30.933Z,54.32
2023-03-29T17:42:57.629Z,53.35
2023-03-29T17:45:24.357Z,54.95
2023-03-29T17:47:51.254Z,55.00
2023-03-29T17:50:18.058Z,54.71
2023-03-29T17:52:45.226Z,51.71
2023-03-29T17:55:13.831Z,51.53
2023-03-29T17:57:41.441Z,52.38
2023-03-29T18:00:12.116Z,52.08
2023-03-29T18:02:40.134Z,52.33
2023-03-29T18:05:09.511Z,52.24
2023-03-29T18:07:37.349Z,52.35
2023-03-29T18:10:04.622Z,51.24
2023-03-29T18:12:31.616Z,50.71
2023-03-29T18:14:58.365Z,50.25
2023-03-29T18:17:27.671Z,50.17
2023-03-29T18:19:54.602Z,50.11
2023-03-29T18:22:23.982Z,49.59
2023-03-29T18:24:51.124Z,49.91
2023-03-29T18:27:18.687Z,50.27
2023-03-29T18:29:45.762Z,50.59
2023-03-29T18:32:13.659Z,49.79
2023-03-29T18:34:40.477Z,50.14
2023-03-29T18:37:09.450Z,49.92
2023-03-29T18:39:36.325Z,49.28
2023-03-29T18:42:03.007Z,49.22
2023-03-29T18:44:29.787Z,49.39
2023-03-29T18:46:56.459Z,49.44
2023-03-29T18:49:24.995Z,49.74
2023-03-29T18:51:52.195Z,49.88
2023-03-29T18:54:18.850Z,49.65
2023-03-29T18:56:45.518Z,49.51
2023-03-29T18:59:12.659Z,49.45
2023-03-29T19:01:39.362Z,50.15
2023-03-29T19:04:06.451Z,49.68
2023-03-29T19:06:33.187Z,49.57
2023-03-29T19:09:02.104Z,49.86
2023-03-29T19:11:31.689Z,49.75
2023-03-29T19:13:58.319Z,49.75
2023-03-29T19:16:25.881Z,49.85
2023-03-29T19:18:53.052Z,49.30
2023-03-29T19:21:19.877Z,49.46
2023-03-29T19:23:46.575Z,49.10
2023-03-29T19:26:15.322Z,49.03
2023-03-29T19:28:42.134Z,49.58
2023-03-29T19:31:08.885Z,49.22
2023-03-29T19:33:35.658Z,48.99
2023-03-29T19:36:02.484Z,49.53
2023-03-29T19:38:29.493Z,49.19
2023-03-29T19:40:56.827Z,49.17
2023-03-29T19:43:25.086Z,48.06
2023-03-29T19:45:52.141Z,48.20
2023-03-29T19:48:23.485Z,48.82
2023-03-29T19:50:50.704Z,48.52
2023-03-29T19:53:17.515Z,48.81
2023-03-29T19:55:45.692Z,49.02
2023-03-29T19:58:12.924Z,49.06
2023-03-29T20:00:41.856Z,48.69
2023-03-29T20:03:13.956Z,48.75
2023-03-29T20:05:41.145Z,49.21
2023-03-29T20:08:08.180Z,49.24
2023-03-29T20:10:36.037Z,49.23
2023-03-29T20:13:03.494Z,48.88
2023-03-29T20:15:32.809Z,48.48
2023-03-29T20:18:00.448Z,48.46
2023-03-29T20:20:28.480Z,48.50
2023-03-29T20:22:58.531Z,48.83
2023-03-29T20:25:26.077Z,49.61
2023-03-29T20:27:53.206Z,49.47
2023-03-29T20:30:20.579Z,49.38
2023-03-29T20:32:47.487Z,48.70
2023-03-29T20:35:14.224Z,49.23
2023-03-29T20:37:40.856Z,49.63
2023-03-29T20:40:08.645Z,49.69
2023-03-29T20:42:36.756Z,49.95
2023-03-29T20:45:04.390Z,50.38
2023-03-29T20:47:31.269Z,50.81
2023-03-29T20:49:57.992Z,50.87
2023-03-29T20:52:25.851Z,50.65
2023-03-29T20:54:52.543Z,50.81
2023-03-29T20:57:21.167Z,50.98
2023-03-29T20:59:49.581Z,51.42
2023-03-29T21:02:22.973Z,51.93
2023-03-29T21:04:53.933Z,51.74
2023-03-29T21:07:21.702Z,51.88
2023-03-29T21:09:50.006Z,52.21
2023-03-29T21:12:17.444Z,52.21
2023-03-29T21:14:44.698Z,51.50
2023-03-29T21:17:11.482Z,51.51
2023-03-29T21:19:39.408Z,51.99
2023-03-29T21:22:06.224Z,51.64
2023-03-29T21:24:33.484Z,52.24
2023-03-29T21:27:00.669Z,52.04
2023-03-29T21:29:27.467Z,52.44
2023-03-29T21:31:55.003Z,52.31
2023-03-29T21:34:21.723Z,52.06
2023-03-29T21:36:48.369Z,52.85
2023-03-29T21:39:15.043Z,52.93
2023-03-29T21:41:41.756Z,52.64
2023-03-29T21:44:08.824Z,52.13
2023-03-29T21:46:35.678Z,52.34
2023-03-29T21:49:02.611Z,50.56
2023-03-29T21:51:29.223Z,52.18
2023-03-29T21:53:56.127Z,52.25
2023-03-29T21:56:23.164Z,52.44
2023-03-29T21:58:49.766Z,52.91
2023-03-29T22:01:16.407Z,52.91
2023-03-29T22:03:43.186Z,53.12
2023-03-29T22:06:13.889Z,53.24
2023-03-29T22:08:40.653Z,53.11
2023-03-29T22:11:14.360Z,52.59
2023-03-29T22:13:42.136Z,52.99
2023-03-29T22:16:10.918Z,53.03
2023-03-29T22:18:43.967Z,53.09
2023-03-29T22:21:25.329Z,52.83
2023-03-29T22:23:54.278Z,52.60
2023-03-29T22:26:24.596Z,51.65
2023-03-29T22:28:51.784Z,51.36
2023-03-29T22:31:21.143Z,51.52
2023-03-29T22:33:48.263Z,51.58
2023-03-29T22:36:21.952Z,51.53
2023-03-29T22:38:49.921Z,51.34
2023-03-29T22:41:18.142Z,51.54
2023-03-29T22:43:45.345Z,51.72
2023-03-29T22:46:13.450Z,52.08
2023-03-29T22:48:40.201Z,51.82
2023-03-29T22:51:06.947Z,52.33
2023-03-29T22:53:34.004Z,52.09
2023-03-29T22:56:01.283Z,52.75
2023-03-29T22:58:29.464Z,53.10
2023-03-29T23:00:57.683Z,53.01
2023-03-29T23:03:24.410Z,53.24
2023-03-29T23:05:55.819Z,53.31
2023-03-29T23:08:23.748Z,53.35
2023-03-29T23:10:51.642Z,53.36
2023-03-29T23:13:26.022Z,53.47
2023-03-29T23:15:55.336Z,54.17
2023-03-29T23:18:23.797Z,54.38
2023-03-29T23:20:52.412Z,53.90
2023-03-29T23:23:20.461Z,53.88
2023-03-29T23:25:48.318Z,53.77
2023-03-29T23:28:17.021Z,53.66
2023-03-29T23:30:43.821Z,53.84
2023-03-29T23:33:10.641Z,53.59
2023-03-29T23:35:37.753Z,53.61
2023-03-29T23:38:05.841Z,53.93
2023-03-29T23:40:33.320Z,54.30
2023-03-29T23:43:01.557Z,54.30
2023-03-29T23:45:28.164Z,54.52
2023-03-29T23:47:56.161Z,54.10
2023-03-29T23:50:23.685Z,54.09
2023-03-29T23:52:51.609Z,53.94
2023-03-29T23:55:18.625Z,54.01
2023-03-29T23:57:45.444Z,54.36
